sensor_id;sensor_type;location;lat;lon;timestamp;P1;durP1;ratioP1;P2;durP2;ratioP2
67195;SDS011;54122;53.538;49.366;2023-12-20T00:01:58;0.82;;;0.50;;
67195;SDS011;54122;53.538;49.366;2023-12-20T00:04:25;2.33;;;0.70;;
67195;SDS011;54122;53.538;49.366;2023-12-20T00:06:51;1.33;;;0.75;;
67195;SDS011;54122;53.538;49.366;2023-12-20T00:09:18;1.63;;;0.70;;
67195;SDS011;54122;53.538;49.366;2023-12-20T00:11:46;1.27;;;0.85;;
67195;SDS011;54122;53.538;49.366;2023-12-20T00:14:13;1.73;;;0.60;;
67195;SDS011;54122;53.538;49.366;2023-12-20T00:16:41;1.23;;;0.68;;
67195;SDS011;54122;53.538;49.366;2023-12-20T00:19:08;4.40;;;1.10;;
67195;SDS011;54122;53.538;49.366;2023-12-20T00:21:34;6.63;;;0.73;;
67195;SDS011;54122;53.538;49.366;2023-12-20T00:24:01;2.35;;;0.85;;
67195;SDS011;54122;53.538;49.366;2023-12-20T00:26:28;3.33;;;1.08;;
67195;SDS011;54122;53.538;49.366;2023-12-20T00:28:55;3.17;;;1.40;;
67195;SDS011;54122;53.538;49.366;2023-12-20T00:31:23;2.30;;;1.17;;
67195;SDS011;54122;53.538;49.366;2023-12-20T00:33:50;1.90;;;0.93;;
67195;SDS011;54122;53.538;49.366;2023-12-20T00:36:16;1.92;;;0.85;;
67195;SDS011;54122;53.538;49.366;2023-12-20T00:38:43;1.52;;;0.93;;
67195;SDS011;54122;53.538;49.366;2023-12-20T00:41:09;1.90;;;1.13;;
67195;SDS011;54122;53.538;49.366;2023-12-20T00:43:36;2.28;;;1.10;;
67195;SDS011;54122;53.538;49.366;2023-12-20T00:46:02;1.35;;;0.93;;
67195;SDS011;54122;53.538;49.366;2023-12-20T00:48:29;2.05;;;0.93;;
67195;SDS011;54122;53.538;49.366;2023-12-20T00:50:57;2.17;;;1.30;;
67195;SDS011;54122;53.538;49.366;2023-12-20T00:53:24;3.90;;;2.10;;
67195;SDS011;54122;53.538;49.366;2023-12-20T00:55:50;1.63;;;0.70;;
67195;SDS011;54122;53.538;49.366;2023-12-20T00:58:16;1.08;;;0.80;;
67195;SDS011;54122;53.538;49.366;2023-12-20T01:00:43;1.52;;;0.82;;
67195;SDS011;54122;53.538;49.366;2023-12-20T01:03:09;2.28;;;0.90;;
67195;SDS011;54122;53.538;49.366;2023-12-20T01:05:36;1.55;;;0.95;;
67195;SDS011;54122;53.538;49.366;2023-12-20T01:08:02;2.00;;;1.08;;
67195;SDS011;54122;53.538;49.366;2023-12-20T01:10:29;0.98;;;0.57;;
67195;SDS011;54122;53.538;49.366;2023-12-20T01:12:55;3.00;;;1.27;;
67195;SDS011;54122;53.538;49.366;2023-12-20T01:15:22;1.08;;;0.77;;
67195;SDS011;54122;53.538;49.366;2023-12-20T01:17:48;1.05;;;0.63;;
67195;SDS011;54122;53.538;49.366;2023-12-20T01:20:15;1.80;;;0.70;;
67195;SDS011;54122;53.538;49.366;2023-12-20T01:22:42;1.15;;;0.63;;
67195;SDS011;54122;53.538;49.366;2023-12-20T01:25:11;1.08;;;0.73;;
67195;SDS011;54122;53.538;49.366;2023-12-20T01:27:38;0.50;;;0.40;;
67195;SDS011;54122;53.538;49.366;2023-12-20T01:30:04;0.85;;;0.45;;
67195;SDS011;54122;53.538;49.366;2023-12-20T01:32:31;0.80;;;0.43;;
67195;SDS011;54122;53.538;49.366;2023-12-20T01:34:59;1.15;;;0.57;;
67195;SDS011;54122;53.538;49.366;2023-12-20T01:37:26;0.82;;;0.52;;
67195;SDS011;54122;53.538;49.366;2023-12-20T01:39:54;0.88;;;0.47;;
67195;SDS011;54122;53.538;49.366;2023-12-20T01:42:21;1.55;;;0.45;;
67195;SDS011;54122;53.538;49.366;2023-12-20T01:44:47;1.05;;;0.50;;
67195;SDS011;54122;53.538;49.366;2023-12-20T01:47:13;0.65;;;0.55;;
67195;SDS011;54122;53.538;49.366;2023-12-20T01:49:40;1.00;;;0.47;;
67195;SDS011;54122;53.538;49.366;2023-12-20T01:52:06;0.90;;;0.60;;
67195;SDS011;54122;53.538;49.366;2023-12-20T01:54:34;0.38;;;0.30;;
67195;SDS011;54122;53.538;49.366;2023-12-20T01:57:01;1.60;;;0.40;;
67195;SDS011;54122;53.538;49.366;2023-12-20T01:59:28;1.45;;;0.65;;
67195;SDS011;54122;53.538;49.366;2023-12-20T02:01:56;1.30;;;0.57;;
67195;SDS011;54122;53.538;49.366;2023-12-20T02:04:22;2.05;;;0.77;;
67195;SDS011;54122;53.538;49.366;2023-12-20T02:06:49;1.80;;;0.55;;
67195;SDS011;54122;53.538;49.366;2023-12-20T02:09:18;1.15;;;0.60;;
67195;SDS011;54122;53.538;49.366;2023-12-20T02:11:45;1.20;;;0.32;;
67195;SDS011;54122;53.538;49.366;2023-12-20T02:14:11;1.85;;;0.80;;
67195;SDS011;54122;53.538;49.366;2023-12-20T02:16:37;1.35;;;0.40;;
67195;SDS011;54122;53.538;49.366;2023-12-20T02:19:04;2.25;;;0.57;;
67195;SDS011;54122;53.538;49.366;2023-12-20T02:21:38;5.28;;;0.52;;
67195;SDS011;54122;53.538;49.366;2023-12-20T02:24:04;1.77;;;0.47;;
67195;SDS011;54122;53.538;49.366;2023-12-20T02:26:34;0.73;;;0.40;;
67195;SDS011;54122;53.538;49.366;2023-12-20T02:29:00;1.20;;;0.40;;
67195;SDS011;54122;53.538;49.366;2023-12-20T02:31:26;0.75;;;0.35;;
67195;SDS011;54122;53.538;49.366;2023-12-20T02:33:53;0.40;;;0.30;;
67195;SDS011;54122;53.538;49.366;2023-12-20T02:36:19;1.27;;;0.68;;
67195;SDS011;54122;53.538;49.366;2023-12-20T02:38:45;0.85;;;0.65;;
67195;SDS011;54122;53.538;49.366;2023-12-20T02:41:12;1.25;;;0.40;;
67195;SDS011;54122;53.538;49.366;2023-12-20T02:43:39;0.22;;;0.22;;
67195;SDS011;54122;53.538;49.366;2023-12-20T02:46:05;1.50;;;0.50;;
67195;SDS011;54122;53.538;49.366;2023-12-20T02:48:31;1.27;;;0.32;;
67195;SDS011;54122;53.538;49.366;2023-12-20T02:50:57;0.40;;;0.38;;
67195;SDS011;54122;53.538;49.366;2023-12-20T02:53:23;1.00;;;0.60;;
67195;SDS011;54122;53.538;49.366;2023-12-20T02:55:49;1.17;;;0.40;;
67195;SDS011;54122;53.538;49.366;2023-12-20T02:58:16;1.50;;;0.32;;
67195;SDS011;54122;53.538;49.366;2023-12-20T03:00:43;0.40;;;0.30;;
67195;SDS011;54122;53.538;49.366;2023-12-20T03:03:09;0.68;;;0.45;;
67195;SDS011;54122;53.538;49.366;2023-12-20T03:05:35;2.20;;;0.60;;
67195;SDS011;54122;53.538;49.366;2023-12-20T03:08:02;1.63;;;0.95;;
67195;SDS011;54122;53.538;49.366;2023-12-20T03:10:28;1.23;;;0.85;;
67195;SDS011;54122;53.538;49.366;2023-12-20T03:12:54;2.15;;;1.25;;
67195;SDS011;54122;53.538;49.366;2023-12-20T03:22:28;1.77;;;0.70;;
67195;SDS011;54122;53.538;49.366;2023-12-20T03:24:55;2.35;;;1.02;;
67195;SDS011;54122;53.538;49.366;2023-12-20T03:27:21;1.83;;;0.80;;
67195;SDS011;54122;53.538;49.366;2023-12-20T03:33:14;2.90;;;0.95;;
67195;SDS011;54122;53.538;49.366;2023-12-20T03:35:41;10.75;;;2.90;;
67195;SDS011;54122;53.538;49.366;2023-12-20T03:38:07;3.35;;;1.10;;
67195;SDS011;54122;53.538;49.366;2023-12-20T03:40:34;1.98;;;0.70;;
67195;SDS011;54122;53.538;49.366;2023-12-20T03:43:00;3.75;;;1.10;;
67195;SDS011;54122;53.538;49.366;2023-12-20T03:45:26;10.15;;;1.95;;
67195;SDS011;54122;53.538;49.366;2023-12-20T03:47:52;4.57;;;1.17;;
67195;SDS011;54122;53.538;49.366;2023-12-20T03:50:21;4.15;;;0.70;;
67195;SDS011;54122;53.538;49.366;2023-12-20T03:52:48;2.03;;;1.08;;
67195;SDS011;54122;53.538;49.366;2023-12-20T03:55:15;1.15;;;0.60;;
67195;SDS011;54122;53.538;49.366;2023-12-20T03:57:41;1.92;;;0.98;;
67195;SDS011;54122;53.538;49.366;2023-12-20T04:00:08;2.53;;;1.10;;
67195;SDS011;54122;53.538;49.366;2023-12-20T04:02:41;0.65;;;0.45;;
67195;SDS011;54122;53.538;49.366;2023-12-20T04:05:08;3.00;;;0.98;;
67195;SDS011;54122;53.538;49.366;2023-12-20T04:07:35;2.17;;;0.98;;
67195;SDS011;54122;53.538;49.366;2023-12-20T04:10:02;1.30;;;0.82;;
67195;SDS011;54122;53.538;49.366;2023-12-20T04:12:29;1.45;;;0.40;;
67195;SDS011;54122;53.538;49.366;2023-12-20T04:14:56;5.13;;;0.82;;
67195;SDS011;54122;53.538;49.366;2023-12-20T04:17:22;1.58;;;0.77;;
67195;SDS011;54122;53.538;49.366;2023-12-20T04:19:49;2.28;;;0.60;;
67195;SDS011;54122;53.538;49.366;2023-12-20T04:22:16;2.00;;;0.60;;
67195;SDS011;54122;53.538;49.366;2023-12-20T04:24:44;1.50;;;0.93;;
67195;SDS011;54122;53.538;49.366;2023-12-20T04:27:11;1.00;;;0.60;;
67195;SDS011;54122;53.538;49.366;2023-12-20T04:29:37;2.45;;;0.73;;
67195;SDS011;54122;53.538;49.366;2023-12-20T04:32:04;2.08;;;0.90;;
67195;SDS011;54122;53.538;49.366;2023-12-20T04:34:30;1.20;;;0.47;;
67195;SDS011;54122;53.538;49.366;2023-12-20T04:36:57;1.50;;;0.70;;
67195;SDS011;54122;53.538;49.366;2023-12-20T04:39:23;2.05;;;0.70;;
67195;SDS011;54122;53.538;49.366;2023-12-20T04:41:49;2.42;;;0.50;;
67195;SDS011;54122;53.538;49.366;2023-12-20T04:44:15;0.73;;;0.47;;
67195;SDS011;54122;53.538;49.366;2023-12-20T04:46:42;2.75;;;0.73;;
67195;SDS011;54122;53.538;49.366;2023-12-20T04:49:08;0.60;;;0.38;;
67195;SDS011;54122;53.538;49.366;2023-12-20T04:51:34;0.60;;;0.30;;
67195;SDS011;54122;53.538;49.366;2023-12-20T04:54:01;2.70;;;0.52;;
67195;SDS011;54122;53.538;49.366;2023-12-20T04:56:28;7.88;;;1.40;;
67195;SDS011;54122;53.538;49.366;2023-12-20T04:58:54;5.80;;;0.90;;
67195;SDS011;54122;53.538;49.366;2023-12-20T05:01:20;2.25;;;1.15;;
67195;SDS011;54122;53.538;49.366;2023-12-20T05:03:47;3.22;;;1.42;;
67195;SDS011;54122;53.538;49.366;2023-12-20T05:06:13;4.38;;;1.05;;
67195;SDS011;54122;53.538;49.366;2023-12-20T05:08:40;4.63;;;1.45;;
67195;SDS011;54122;53.538;49.366;2023-12-20T05:11:06;2.60;;;1.20;;
67195;SDS011;54122;53.538;49.366;2023-12-20T05:13:32;1.33;;;0.80;;
67195;SDS011;54122;53.538;49.366;2023-12-20T05:15:58;1.80;;;0.90;;
67195;SDS011;54122;53.538;49.366;2023-12-20T05:18:24;1.33;;;0.70;;
67195;SDS011;54122;53.538;49.366;2023-12-20T05:20:51;1.88;;;0.77;;
67195;SDS011;54122;53.538;49.366;2023-12-20T05:23:17;2.38;;;0.70;;
67195;SDS011;54122;53.538;49.366;2023-12-20T05:25:44;1.00;;;0.40;;
67195;SDS011;54122;53.538;49.366;2023-12-20T05:28:10;0.40;;;0.40;;
67195;SDS011;54122;53.538;49.366;2023-12-20T05:30:36;0.50;;;0.40;;
67195;SDS011;54122;53.538;49.366;2023-12-20T05:33:04;0.82;;;0.45;;
67195;SDS011;54122;53.538;49.366;2023-12-20T05:35:30;1.30;;;0.47;;
67195;SDS011;54122;53.538;49.366;2023-12-20T05:37:56;0.50;;;0.30;;
67195;SDS011;54122;53.538;49.366;2023-12-20T05:40:23;0.77;;;0.63;;
67195;SDS011;54122;53.538;49.366;2023-12-20T05:42:49;1.80;;;0.65;;
67195;SDS011;54122;53.538;49.366;2023-12-20T05:45:16;2.92;;;1.15;;
67195;SDS011;54122;53.538;49.366;2023-12-20T05:47:42;0.95;;;0.63;;
67195;SDS011;54122;53.538;49.366;2023-12-20T05:50:09;0.50;;;0.35;;
67195;SDS011;54122;53.538;49.366;2023-12-20T05:52:35;1.23;;;0.60;;
67195;SDS011;54122;53.538;49.366;2023-12-20T05:55:02;0.82;;;0.52;;
67195;SDS011;54122;53.538;49.366;2023-12-20T05:57:28;0.50;;;0.40;;
67195;SDS011;54122;53.538;49.366;2023-12-20T05:59:55;1.20;;;0.57;;
67195;SDS011;54122;53.538;49.366;2023-12-20T06:02:21;1.05;;;0.60;;
67195;SDS011;54122;53.538;49.366;2023-12-20T06:04:48;1.50;;;0.60;;
67195;SDS011;54122;53.538;49.366;2023-12-20T06:07:15;1.05;;;0.45;;
67195;SDS011;54122;53.538;49.366;2023-12-20T06:09:42;1.80;;;0.13;;
67195;SDS011;54122;53.538;49.366;2023-12-20T06:12:09;0.98;;;0.38;;
67195;SDS011;54122;53.538;49.366;2023-12-20T06:14:35;0.30;;;0.20;;
67195;SDS011;54122;53.538;49.366;2023-12-20T06:17:02;0.70;;;0.20;;
67195;SDS011;54122;53.538;49.366;2023-12-20T06:19:29;0.73;;;0.40;;
67195;SDS011;54122;53.538;49.366;2023-12-20T06:21:55;1.00;;;0.47;;
67195;SDS011;54122;53.538;49.366;2023-12-20T06:24:21;3.53;;;0.40;;
67195;SDS011;54122;53.538;49.366;2023-12-20T06:26:48;0.98;;;0.50;;
67195;SDS011;54122;53.538;49.366;2023-12-20T06:29:14;0.85;;;0.30;;
67195;SDS011;54122;53.538;49.366;2023-12-20T06:31:41;1.85;;;0.47;;
67195;SDS011;54122;53.538;49.366;2023-12-20T06:34:08;1.15;;;0.47;;
67195;SDS011;54122;53.538;49.366;2023-12-20T06:36:35;1.95;;;0.77;;
67195;SDS011;54122;53.538;49.366;2023-12-20T06:39:01;0.43;;;0.10;;
67195;SDS011;54122;53.538;49.366;2023-12-20T06:41:29;1.98;;;0.60;;
67195;SDS011;54122;53.538;49.366;2023-12-20T06:43:56;0.20;;;0.20;;
67195;SDS011;54122;53.538;49.366;2023-12-20T06:46:23;0.80;;;0.32;;
67195;SDS011;54122;53.538;49.366;2023-12-20T06:48:50;3.33;;;0.90;;
67195;SDS011;54122;53.538;49.366;2023-12-20T06:51:16;3.70;;;0.70;;
67195;SDS011;54122;53.538;49.366;2023-12-20T06:53:45;1.15;;;0.50;;
67195;SDS011;54122;53.538;49.366;2023-12-20T06:56:11;1.40;;;0.63;;
67195;SDS011;54122;53.538;49.366;2023-12-20T06:58:38;1.38;;;0.52;;
67195;SDS011;54122;53.538;49.366;2023-12-20T07:01:04;0.95;;;0.50;;
67195;SDS011;54122;53.538;49.366;2023-12-20T07:03:31;1.02;;;0.50;;
67195;SDS011;54122;53.538;49.366;2023-12-20T07:05:58;1.13;;;0.52;;
67195;SDS011;54122;53.538;49.366;2023-12-20T07:08:24;0.70;;;0.20;;
67195;SDS011;54122;53.538;49.366;2023-12-20T07:10:51;0.90;;;0.38;;
67195;SDS011;54122;53.538;49.366;2023-12-20T07:13:17;1.52;;;0.80;;
67195;SDS011;54122;53.538;49.366;2023-12-20T07:15:43;1.33;;;0.65;;
67195;SDS011;54122;53.538;49.366;2023-12-20T07:18:10;2.08;;;0.82;;
67195;SDS011;54122;53.538;49.366;2023-12-20T07:20:36;1.85;;;0.90;;
67195;SDS011;54122;53.538;49.366;2023-12-20T07:23:03;5.90;;;1.20;;
67195;SDS011;54122;53.538;49.366;2023-12-20T07:25:29;3.10;;;0.75;;
67195;SDS011;54122;53.538;49.366;2023-12-20T07:27:58;1.38;;;0.57;;
67195;SDS011;54122;53.538;49.366;2023-12-20T07:30:24;2.75;;;1.13;;
67195;SDS011;54122;53.538;49.366;2023-12-20T07:32:51;2.53;;;1.33;;
67195;SDS011;54122;53.538;49.366;2023-12-20T07:35:17;2.63;;;1.33;;
67195;SDS011;54122;53.538;49.366;2023-12-20T07:37:44;5.05;;;1.38;;
67195;SDS011;54122;53.538;49.366;2023-12-20T07:40:10;1.10;;;0.70;;
67195;SDS011;54122;53.538;49.366;2023-12-20T07:42:36;0.55;;;0.30;;
67195;SDS011;54122;53.538;49.366;2023-12-20T07:45:03;0.10;;;0.10;;
67195;SDS011;54122;53.538;49.366;2023-12-20T07:47:29;0.40;;;0.20;;
67195;SDS011;54122;53.538;49.366;2023-12-20T07:49:55;0.52;;;0.38;;
67195;SDS011;54122;53.538;49.366;2023-12-20T07:52:22;0.52;;;0.35;;
67195;SDS011;54122;53.538;49.366;2023-12-20T07:54:49;0.85;;;0.35;;
67195;SDS011;54122;53.538;49.366;2023-12-20T07:57:15;1.75;;;0.70;;
67195;SDS011;54122;53.538;49.366;2023-12-20T07:59:41;0.50;;;0.20;;
67195;SDS011;54122;53.538;49.366;2023-12-20T08:02:09;0.57;;;0.30;;
67195;SDS011;54122;53.538;49.366;2023-12-20T08:04:35;1.75;;;0.30;;
67195;SDS011;54122;53.538;49.366;2023-12-20T08:07:01;2.35;;;0.38;;
67195;SDS011;54122;53.538;49.366;2023-12-20T08:09:29;1.48;;;0.60;;
67195;SDS011;54122;53.538;49.366;2023-12-20T08:11:58;0.65;;;0.20;;
67195;SDS011;54122;53.538;49.366;2023-12-20T08:14:25;0.77;;;0.30;;
67195;SDS011;54122;53.538;49.366;2023-12-20T08:16:51;0.73;;;0.30;;
67195;SDS011;54122;53.538;49.366;2023-12-20T08:19:18;0.73;;;0.20;;
67195;SDS011;54122;53.538;49.366;2023-12-20T08:21:44;1.05;;;0.40;;
67195;SDS011;54122;53.538;49.366;2023-12-20T08:24:10;1.27;;;0.50;;
67195;SDS011;54122;53.538;49.366;2023-12-20T08:26:36;0.95;;;0.20;;
67195;SDS011;54122;53.538;49.366;2023-12-20T08:29:02;0.20;;;0.10;;
67195;SDS011;54122;53.538;49.366;2023-12-20T08:31:29;0.32;;;0.17;;
67195;SDS011;54122;53.538;49.366;2023-12-20T08:33:55;0.20;;;0.20;;
67195;SDS011;54122;53.538;49.366;2023-12-20T08:36:22;0.17;;;0.10;;
67195;SDS011;54122;53.538;49.366;2023-12-20T08:38:49;0.17;;;0.10;;
67195;SDS011;54122;53.538;49.366;2023-12-20T08:41:16;0.43;;;0.13;;
67195;SDS011;54122;53.538;49.366;2023-12-20T08:43:43;0.60;;;0.35;;
67195;SDS011;54122;53.538;49.366;2023-12-20T08:46:10;0.40;;;0.20;;
67195;SDS011;54122;53.538;49.366;2023-12-20T08:48:37;0.00;;;0.00;;
67195;SDS011;54122;53.538;49.366;2023-12-20T08:51:04;0.10;;;0.10;;
67195;SDS011;54122;53.538;49.366;2023-12-20T08:53:32;0.52;;;0.20;;
67195;SDS011;54122;53.538;49.366;2023-12-20T08:55:59;0.65;;;0.10;;
67195;SDS011;54122;53.538;49.366;2023-12-20T08:58:30;0.10;;;0.08;;
67195;SDS011;54122;53.538;49.366;2023-12-20T09:00:56;0.40;;;0.30;;
67195;SDS011;54122;53.538;49.366;2023-12-20T09:03:23;2.10;;;0.22;;
67195;SDS011;54122;53.538;49.366;2023-12-20T09:05:50;0.30;;;0.20;;
67195;SDS011;54122;53.538;49.366;2023-12-20T09:08:16;0.28;;;0.15;;
67195;SDS011;54122;53.538;49.366;2023-12-20T09:10:44;0.98;;;0.25;;
67195;SDS011;54122;53.538;49.366;2023-12-20T09:13:10;0.17;;;0.10;;
67195;SDS011;54122;53.538;49.366;2023-12-20T09:15:37;0.32;;;0.20;;
67195;SDS011;54122;53.538;49.366;2023-12-20T09:18:04;0.32;;;0.10;;
67195;SDS011;54122;53.538;49.366;2023-12-20T09:20:30;0.30;;;0.10;;
67195;SDS011;54122;53.538;49.366;2023-12-20T09:22:58;0.60;;;0.20;;
67195;SDS011;54122;53.538;49.366;2023-12-20T09:25:25;0.30;;;0.10;;
67195;SDS011;54122;53.538;49.366;2023-12-20T09:27:52;2.30;;;0.30;;
67195;SDS011;54122;53.538;49.366;2023-12-20T09:30:18;0.75;;;0.22;;
67195;SDS011;54122;53.538;49.366;2023-12-20T09:32:45;0.20;;;0.20;;
67195;SDS011;54122;53.538;49.366;2023-12-20T09:35:12;0.20;;;0.10;;
67195;SDS011;54122;53.538;49.366;2023-12-20T09:37:40;0.52;;;0.20;;
67195;SDS011;54122;53.538;49.366;2023-12-20T09:40:11;0.20;;;0.10;;
67195;SDS011;54122;53.538;49.366;2023-12-20T09:42:48;0.22;;;0.20;;
67195;SDS011;54122;53.538;49.366;2023-12-20T09:45:22;3.78;;;0.32;;
67195;SDS011;54122;53.538;49.366;2023-12-20T09:47:54;0.30;;;0.20;;
67195;SDS011;54122;53.538;49.366;2023-12-20T09:50:22;0.85;;;0.10;;
67195;SDS011;54122;53.538;49.366;2023-12-20T09:52:49;0.52;;;0.13;;
67195;SDS011;54122;53.538;49.366;2023-12-20T09:55:17;0.77;;;0.38;;
67195;SDS011;54122;53.538;49.366;2023-12-20T09:57:45;0.45;;;0.30;;
67195;SDS011;54122;53.538;49.366;2023-12-20T10:00:15;0.25;;;0.25;;
67195;SDS011;54122;53.538;49.366;2023-12-20T10:02:49;0.95;;;0.20;;
67195;SDS011;54122;53.538;49.366;2023-12-20T10:05:20;2.28;;;0.28;;
67195;SDS011;54122;53.538;49.366;2023-12-20T10:07:56;0.45;;;0.28;;
67195;SDS011;54122;53.538;49.366;2023-12-20T10:10:24;1.75;;;0.38;;
67195;SDS011;54122;53.538;49.366;2023-12-20T10:15:47;3.30;;;0.35;;
67195;SDS011;54122;53.538;49.366;2023-12-20T10:18:16;0.65;;;0.40;;
67195;SDS011;54122;53.538;49.366;2023-12-20T10:20:42;0.68;;;0.30;;
67195;SDS011;54122;53.538;49.366;2023-12-20T10:23:10;0.30;;;0.20;;
67195;SDS011;54122;53.538;49.366;2023-12-20T10:25:36;1.15;;;0.22;;
67195;SDS011;54122;53.538;49.366;2023-12-20T10:28:10;0.80;;;0.40;;
67195;SDS011;54122;53.538;49.366;2023-12-20T10:30:48;1.05;;;0.45;;
67195;SDS011;54122;53.538;49.366;2023-12-20T10:33:22;0.65;;;0.30;;
67195;SDS011;54122;53.538;49.366;2023-12-20T10:35:52;0.70;;;0.30;;
67195;SDS011;54122;53.538;49.366;2023-12-20T10:38:19;3.95;;;0.57;;
67195;SDS011;54122;53.538;49.366;2023-12-20T10:40:46;0.20;;;0.20;;
67195;SDS011;54122;53.538;49.366;2023-12-20T10:43:12;0.68;;;0.25;;
67195;SDS011;54122;53.538;49.366;2023-12-20T10:45:39;3.83;;;0.70;;
67195;SDS011;54122;53.538;49.366;2023-12-20T10:48:07;0.65;;;0.40;;
67195;SDS011;54122;53.538;49.366;2023-12-20T10:50:35;0.38;;;0.20;;
67195;SDS011;54122;53.538;49.366;2023-12-20T10:53:04;2.42;;;0.88;;
67195;SDS011;54122;53.538;49.366;2023-12-20T10:55:30;0.35;;;0.30;;
67195;SDS011;54122;53.538;49.366;2023-12-20T10:58:15;2.60;;;1.05;;
67195;SDS011;54122;53.538;49.366;2023-12-20T11:00:43;2.03;;;0.60;;
67195;SDS011;54122;53.538;49.366;2023-12-20T11:03:12;1.73;;;0.70;;
67195;SDS011;54122;53.538;49.366;2023-12-20T11:11:32;0.30;;;0.30;;
67195;SDS011;54122;53.538;49.366;2023-12-20T11:14:07;0.82;;;0.40;;
67195;SDS011;54122;53.538;49.366;2023-12-20T11:17:08;0.93;;;0.40;;
67195;SDS011;54122;53.538;49.366;2023-12-20T11:19:38;5.72;;;1.25;;
67195;SDS011;54122;53.538;49.366;2023-12-20T11:22:20;1.33;;;0.50;;
67195;SDS011;54122;53.538;49.366;2023-12-20T11:24:47;3.22;;;0.80;;
67195;SDS011;54122;53.538;49.366;2023-12-20T11:27:15;2.08;;;0.50;;
67195;SDS011;54122;53.538;49.366;2023-12-20T11:29:41;7.05;;;0.80;;
67195;SDS011;54122;53.538;49.366;2023-12-20T11:34:58;4.68;;;0.50;;
67195;SDS011;54122;53.538;49.366;2023-12-20T11:37:30;1.48;;;0.60;;
67195;SDS011;54122;53.538;49.366;2023-12-20T11:40:01;2.28;;;0.40;;
67195;SDS011;54122;53.538;49.366;2023-12-20T11:42:50;0.85;;;0.60;;
67195;SDS011;54122;53.538;49.366;2023-12-20T11:45:18;4.03;;;0.85;;
67195;SDS011;54122;53.538;49.366;2023-12-20T11:47:48;2.22;;;0.77;;
67195;SDS011;54122;53.538;49.366;2023-12-20T11:50:15;1.13;;;0.60;;
67195;SDS011;54122;53.538;49.366;2023-12-20T11:52:45;2.10;;;0.70;;
67195;SDS011;54122;53.538;49.366;2023-12-20T11:55:11;0.75;;;0.50;;
67195;SDS011;54122;53.538;49.366;2023-12-20T11:57:38;0.80;;;0.57;;
67195;SDS011;54122;53.538;49.366;2023-12-20T12:00:04;0.65;;;0.40;;
67195;SDS011;54122;53.538;49.366;2023-12-20T12:02:31;0.38;;;0.30;;
67195;SDS011;54122;53.538;49.366;2023-12-20T12:05:01;0.98;;;0.70;;
67195;SDS011;54122;53.538;49.366;2023-12-20T12:07:27;6.60;;;1.10;;
67195;SDS011;54122;53.538;49.366;2023-12-20T12:09:53;1.83;;;0.95;;
67195;SDS011;54122;53.538;49.366;2023-12-20T12:12:19;2.13;;;0.50;;
67195;SDS011;54122;53.538;49.366;2023-12-20T12:14:46;1.20;;;0.60;;
67195;SDS011;54122;53.538;49.366;2023-12-20T12:17:13;1.63;;;0.90;;
67195;SDS011;54122;53.538;49.366;2023-12-20T12:19:40;2.53;;;1.20;;
67195;SDS011;54122;53.538;49.366;2023-12-20T12:22:08;3.15;;;0.70;;
67195;SDS011;54122;53.538;49.366;2023-12-20T12:24:38;0.70;;;0.40;;
67195;SDS011;54122;53.538;49.366;2023-12-20T12:27:06;0.70;;;0.45;;
67195;SDS011;54122;53.538;49.366;2023-12-20T12:29:33;1.20;;;0.70;;
67195;SDS011;54122;53.538;49.366;2023-12-20T12:32:00;0.40;;;0.40;;
67195;SDS011;54122;53.538;49.366;2023-12-20T12:34:27;1.45;;;1.00;;
67195;SDS011;54122;53.538;49.366;2023-12-20T12:36:54;0.77;;;0.47;;
67195;SDS011;54122;53.538;49.366;2023-12-20T12:39:21;0.32;;;0.30;;
67195;SDS011;54122;53.538;49.366;2023-12-20T12:41:52;0.70;;;0.50;;
67195;SDS011;54122;53.538;49.366;2023-12-20T12:44:19;1.90;;;0.60;;
67195;SDS011;54122;53.538;49.366;2023-12-20T12:46:48;1.17;;;0.60;;
67195;SDS011;54122;53.538;49.366;2023-12-20T12:49:16;0.63;;;0.32;;
67195;SDS011;54122;53.538;49.366;2023-12-20T12:51:43;1.63;;;0.82;;
67195;SDS011;54122;53.538;49.366;2023-12-20T12:54:10;0.77;;;0.40;;
67195;SDS011;54122;53.538;49.366;2023-12-20T12:56:39;0.65;;;0.43;;
67195;SDS011;54122;53.538;49.366;2023-12-20T12:59:05;0.60;;;0.50;;
67195;SDS011;54122;53.538;49.366;2023-12-20T13:01:32;12.38;;;0.65;;
67195;SDS011;54122;53.538;49.366;2023-12-20T13:03:58;0.98;;;0.40;;
67195;SDS011;54122;53.538;49.366;2023-12-20T13:06:27;0.60;;;0.40;;
67195;SDS011;54122;53.538;49.366;2023-12-20T13:08:53;0.55;;;0.20;;
67195;SDS011;54122;53.538;49.366;2023-12-20T13:11:20;2.97;;;1.30;;
67195;SDS011;54122;53.538;49.366;2023-12-20T13:13:47;5.38;;;1.90;;
67195;SDS011;54122;53.538;49.366;2023-12-20T13:16:13;0.88;;;0.65;;
67195;SDS011;54122;53.538;49.366;2023-12-20T13:18:40;1.75;;;0.45;;
67195;SDS011;54122;53.538;49.366;2023-12-20T13:21:08;2.95;;;1.20;;
67195;SDS011;54122;53.538;49.366;2023-12-20T13:23:35;1.25;;;0.52;;
67195;SDS011;54122;53.538;49.366;2023-12-20T13:26:02;0.50;;;0.47;;
67195;SDS011;54122;53.538;49.366;2023-12-20T13:28:30;0.77;;;0.65;;
67195;SDS011;54122;53.538;49.366;2023-12-20T13:30:56;20.05;;;7.35;;
67195;SDS011;54122;53.538;49.366;2023-12-20T13:33:23;10.00;;;5.50;;
67195;SDS011;54122;53.538;49.366;2023-12-20T13:35:49;3.67;;;1.92;;
67195;SDS011;54122;53.538;49.366;2023-12-20T13:38:16;1.30;;;0.80;;
67195;SDS011;54122;53.538;49.366;2023-12-20T13:40:43;1.10;;;0.65;;
67195;SDS011;54122;53.538;49.366;2023-12-20T13:43:09;4.22;;;1.30;;
67195;SDS011;54122;53.538;49.366;2023-12-20T13:45:39;11.43;;;4.95;;
67195;SDS011;54122;53.538;49.366;2023-12-20T13:48:06;5.50;;;2.15;;
67195;SDS011;54122;53.538;49.366;2023-12-20T13:50:32;6.90;;;3.22;;
67195;SDS011;54122;53.538;49.366;2023-12-20T13:52:59;4.03;;;1.83;;
67195;SDS011;54122;53.538;49.366;2023-12-20T13:55:26;1.95;;;1.05;;
67195;SDS011;54122;53.538;49.366;2023-12-20T13:57:53;3.08;;;1.70;;
67195;SDS011;54122;53.538;49.366;2023-12-20T14:00:19;2.75;;;0.90;;
67195;SDS011;54122;53.538;49.366;2023-12-20T14:02:46;1.35;;;0.90;;
67195;SDS011;54122;53.538;49.366;2023-12-20T14:05:13;3.40;;;1.25;;
67195;SDS011;54122;53.538;49.366;2023-12-20T14:07:43;2.08;;;1.20;;
67195;SDS011;54122;53.538;49.366;2023-12-20T14:10:13;3.40;;;1.27;;
67195;SDS011;54122;53.538;49.366;2023-12-20T14:12:39;3.08;;;1.50;;
67195;SDS011;54122;53.538;49.366;2023-12-20T14:15:06;2.95;;;1.75;;
67195;SDS011;54122;53.538;49.366;2023-12-20T14:17:37;1.88;;;1.17;;
67195;SDS011;54122;53.538;49.366;2023-12-20T14:20:05;2.67;;;2.08;;
67195;SDS011;54122;53.538;49.366;2023-12-20T14:22:35;3.28;;;1.27;;
67195;SDS011;54122;53.538;49.366;2023-12-20T14:25:02;2.88;;;1.52;;
67195;SDS011;54122;53.538;49.366;2023-12-20T14:27:28;3.15;;;1.73;;
67195;SDS011;54122;53.538;49.366;2023-12-20T14:29:55;8.73;;;4.40;;
67195;SDS011;54122;53.538;49.366;2023-12-20T14:32:24;14.82;;;7.70;;
67195;SDS011;54122;53.538;49.366;2023-12-20T14:34:52;7.95;;;3.55;;
67195;SDS011;54122;53.538;49.366;2023-12-20T14:37:20;19.05;;;6.50;;
67195;SDS011;54122;53.538;49.366;2023-12-20T14:39:46;17.15;;;5.32;;
67195;SDS011;54122;53.538;49.366;2023-12-20T14:42:12;23.65;;;6.80;;
67195;SDS011;54122;53.538;49.366;2023-12-20T14:44:42;15.98;;;5.47;;
67195;SDS011;54122;53.538;49.366;2023-12-20T14:47:09;31.00;;;9.57;;
67195;SDS011;54122;53.538;49.366;2023-12-20T14:49:35;13.88;;;5.57;;
67195;SDS011;54122;53.538;49.366;2023-12-20T14:52:02;15.65;;;5.68;;
67195;SDS011;54122;53.538;49.366;2023-12-20T14:54:29;9.38;;;4.13;;
67195;SDS011;54122;53.538;49.366;2023-12-20T14:56:55;10.13;;;5.25;;